Latest Coastal Weather Observations for Green Cape

IDN60701

Issued at 6:11 am EST Saturday 4 July 2015 (issued every 10 minutes, with the page automatically refreshed every 10 minutes)

About coastal observations | Map of coastal stations | Coastal observations for NSW | Marine services | Other Formats
Station Details ID: 069137 Name: GREEN CAPE AWS Lat: -37.26 Lon: 150.05 Height: 19.4 m
Data from the previous 72 hours. | See also: Recent months at Green Cape
Date/Time
EST
Temp

°C
Wind Pressure Rain
since 9am
mm
Weather Cloud Vis
km
Sea
Height
m
Swell
Dir
 
Speed
knots
Gust
knots
hPa Trend Height
m
Period
s
Dir
04/06:00am 7.4 W 11 13 1021.3 - 0.0 - - - - - - -
04/05:30am 7.5 W 13 16 1021.2 - 0.0 - - - - - - -
04/05:00am 7.7 W 12 14 1021.1 - 0.0 - - - - - - -
04/04:30am 7.5 W 11 15 1021.3 - 0.0 - - - - - - -
04/04:00am 7.7 W 12 14 1021.4 - 0.0 - - - - - - -
04/03:30am 7.9 WSW 10 13 1021.7 - 0.0 - - - - - - -
04/03:00am 7.7 W 11 17 1022.0 - 0.0 - - - - - - -
04/02:30am 7.3 W 13 16 1022.2 - 0.0 - - - - - - -
04/02:00am 7.2 W 13 15 1022.3 - 0.0 - - - - - - -
04/01:30am 7.4 W 13 15 1022.5 - 0.0 - - - - - - -
04/01:00am 7.7 W 13 15 1022.8 - 0.0 - - - - - - -
04/12:30am 7.9 W 13 15 1023.1 - 0.0 - - - - - - -
04/12:00am 8.1 W 13 14 1023.5 - 0.0 - - - - - - -
 
Date/Time
EST
Temp

°C
Wind Pressure Rain
since 9am
mm
Weather Cloud Vis
km
Sea
Height
m
Swell
Dir
 
Speed
knots
Gust
knots
hPa Trend Height
m
Period
s
Dir
03/11:30pm 8.7 W 11 13 1023.8 - 0.0 - - - - - - -
03/11:00pm 8.7 W 12 14 1024.2 - 0.0 - - - - - - -
03/10:30pm 9.4 W 12 15 1024.4 - 0.0 - - - - - - -
03/10:00pm 8.9 W 11 13 1024.6 - 0.0 - - - - - - -
03/09:30pm 8.9 W 12 16 1024.7 - 0.0 - - - - - - -
03/09:00pm 8.3 W 12 16 1024.8 - 0.0 - - - - - - -
03/08:30pm 8.4 W 12 14 1025.0 - 0.0 - - - - - - -
03/08:00pm 8.6 W 12 14 1024.9 - 0.0 - - - - - - -
03/07:30pm 9.0 W 11 13 1024.8 - 0.0 - - - - - - -
03/07:00pm 9.4 W 12 14 1024.8 - 0.0 - - - - - - -
03/06:30pm 9.9 W 13 17 1024.8 - 0.0 - - - - - - -
03/06:00pm 10.3 W 12 15 1024.5 - 0.0 - - - - - - -
03/05:30pm 10.3 W 14 16 1024.5 - 0.0 - - - - - - -
03/05:00pm 10.7 W 12 16 1024.4 - 0.0 - - - - - - -
03/04:30pm 11.3 W 15 17 1024.5 - 0.0 - - - - - - -
03/04:00pm 11.6 W 14 17 1024.4 - 0.0 - - - - - - -
03/03:30pm 11.6 W 13 16 1024.3 - 0.0 - - - - - - -
03/03:00pm 12.0 W 12 15 1024.4 - 0.0 - - - - - - -
03/02:30pm 12.0 W 11 15 1024.4 - 0.0 - - - - - - -
03/02:00pm 11.9 WSW 12 16 1024.4 - 0.0 - - - - - - -
03/01:30pm 11.9 WSW 15 18 1024.6 - 0.0 - - - - - - -
03/01:00pm 11.9 WSW 15 20 1024.8 - 0.0 - - - - - - -
03/12:30pm 11.4 WSW 17 21 1025.1 - 0.0 - - - - - - -
03/12:00pm 11.5 WSW 18 22 1025.6 - 0.0 - - - - - - -
03/11:30am 11.2 WSW 18 23 1026.1 - 0.0 - - - - - - -
03/11:00am 10.9 WSW 18 22 1026.4 - 0.0 - - - - - - -
03/10:30am 10.5 WSW 23 28 1026.4 - 0.0 - - - - - - -
03/10:00am 10.2 WSW 20 25 1026.4 - 0.0 - - - - - - -
03/09:30am 9.6 WSW 21 25 1026.7 - 0.0 - - - - - - -
03/09:00am 9.6 W 18 25 1026.5 - 0.6 - - - - - - -
03/08:30am 9.6 W 19 25 1026.5 - 0.6 - - - - - - -
03/08:00am 9.3 WSW 20 26 1026.4 - 0.6 - - - - - - -
03/07:30am 8.9 W 20 26 1025.7 - 0.6 - - - - - - -
03/07:00am 8.9 WSW 16 20 1025.7 - 0.6 - - - - - - -
03/06:30am 8.9 WSW 24 31 1025.1 - 0.6 - - - - - - -
03/06:00am 8.8 WSW 22 28 1024.6 - 0.6 - - - - - - -
03/05:30am 8.9 WSW 26 32 1024.2 - 0.6 - - - - - - -
03/05:00am 8.8 WSW 27 33 1023.9 - 0.6 - - - - - - -
03/04:30am 9.1 WSW 24 31 1024.1 - 0.6 - - - - - - -
03/04:00am 8.9 WSW 24 29 1024.3 - 0.6 - - - - - - -
03/03:30am 9.4 WSW 24 31 1024.1 - 0.6 - - - - - - -
03/03:00am 9.2 WSW 27 34 1024.1 - 0.6 - - - - - - -
03/02:30am 9.3 WSW 26 33 1023.9 - 0.6 - - - - - - -
03/02:00am 9.4 WSW 25 31 1023.9 - 0.6 - - - - - - -
03/01:30am 9.5 WSW 24 32 1023.9 - 0.6 - - - - - - -
03/01:00am 9.4 W 25 31 1023.5 - 0.6 - - - - - - -
03/12:30am 9.3 WSW 26 34 1023.6 - 0.6 - - - - - - -
03/12:00am 9.7 WSW 27 35 1023.4 - 0.6 - - - - - - -
 
Date/Time
EST
Temp

°C
Wind Pressure Rain
since 9am
mm
Weather Cloud Vis
km
Sea
Height
m
Swell
Dir
 
Speed
knots
Gust
knots
hPa Trend Height
m
Period
s
Dir
02/11:30pm 9.6 WSW 29 35 1023.2 - 0.6 - - - - - - -
02/11:00pm 9.5 WSW 27 33 1023.1 - 0.6 - - - - - - -
02/10:30pm 9.5 WSW 26 32 1023.1 - 0.6 - - - - - - -
02/10:00pm 9.7 WSW 28 36 1022.7 - 0.6 - - - - - - -
02/09:30pm 10.0 WSW 29 39 1022.5 - 0.6 - - - - - - -
02/09:11pm 9.6 WSW 28 39 1022.4 - 0.6 - - - - - - -
02/09:00pm 9.7 WSW 28 34 1022.3 - 0.6 - - - - - - -
02/08:30pm 9.6 WSW 29 36 1021.9 - 0.6 - - - - - - -
02/08:00pm 9.4 WSW 28 35 1021.6 - 0.6 - - - - - - -
02/07:30pm 9.6 WSW 29 36 1021.3 - 0.6 - - - - - - -
02/07:00pm 9.7 WSW 31 39 1020.7 - 0.6 - - - - - - -
02/06:30pm 9.6 WSW 32 38 1019.9 - 0.6 - - - - - - -
02/06:08pm 9.5 WSW 34 45 1019.4 - 0.6 - - - - - - -
02/06:00pm 9.6 WSW 34 43 1019.3 - 0.6 Recent precip. - - - - - -
02/05:37pm 9.0 WSW 31 42 1019.1 - 0.6 - - - - - - -
02/05:30pm 8.9 WSW 32 41 1018.8 - 0.6 - - - - - - -
02/05:18pm 8.9 WSW 31 41 1018.7 - 0.6 - - - - - - -
02/05:00pm 8.6 WSW 30 37 1018.8 - 0.4 - - - - - - -
02/04:42pm 9.5 WSW 31 49 1018.1 - 0.4 - - - - - - -
02/04:40pm 9.5 WSW 29 41 1018.3 - 0.4 - - - - - - -
02/04:30pm 9.5 SW 22 33 1018.8 - 0.4 - - - - - - -
02/04:28pm 9.4 SW 21 33 1018.7 - 0.4 - - - - - - -
02/04:00pm 9.6 WSW 27 35 1018.3 - 0.4 - - - - - - -
02/03:37pm 9.9 WSW 34 44 1017.2 - 0.4 - - - - - - -
02/03:30pm 9.8 WSW 34 42 1017.0 - 0.4 - - - - - - -
02/03:10pm 9.6 WSW 30 43 1016.9 - 0.4 - - - - - - -
02/03:00pm 9.4 WSW 30 39 1016.7 - 0.4 - - - - - - -
02/02:32pm 9.6 WSW 26 37 1016.6 - 0.4 - - - - - - -
02/02:30pm 9.6 WSW 25 31 1016.8 - 0.4 - - - - - - -
02/02:00pm 9.1 WSW 27 35 1016.6 - 0.4 - - - - - - -
02/01:33pm 8.9 WSW 30 40 1016.3 - 0.4 - - - - - - -
02/01:30pm 9.0 WSW 32 40 1016.2 - 0.4 - - - - - - -
02/01:07pm 10.4 SW 33 44 1015.9 - 0.0 - - - - - - -
02/01:00pm 11.3 SW 33 42 1015.9 - 0.0 - - - - - - -
02/12:49pm 11.7 SW 27 39 1015.2 - 0.0 - - - - - - -
02/12:44pm 12.3 WSW 22 33 1015.3 - 0.0 - - - - - - -
02/12:30pm 12.3 WSW 21 27 1015.7 - 0.0 - - - - - - -
02/12:00pm 12.1 WSW 26 33 1015.6 - 0.0 - - - - - - -
02/11:30am 12.3 WSW 25 32 1016.2 - 0.0 - - - - - - -
02/11:00am 11.5 WSW 27 36 1016.5 - 0.0 - - - - - - -
02/10:49am 11.3 WSW 20 30 1016.9 - 0.0 - - - - - - -
02/10:30am 11.2 WSW 24 30 1017.2 - 0.0 - - - - - - -
02/10:17am 11.0 SW 20 31 1017.3 - 0.0 - - - - - - -
02/10:00am 10.9 SW 20 25 1017.4 - 0.0 - - - - - - -
02/09:30am 11.8 SW 13 16 1016.9 - 0.0 - - - - - - -
02/09:00am 12.0 W 8 10 1016.2 - 0.0 - - - - - - -
02/08:30am 12.4 NNW 9 11 1015.7 - 0.0 - - - - - - -
02/08:00am 11.1 NNW 10 14 1015.6 - 0.0 - - - - - - -
02/07:30am 11.4 NW 11 16 1015.8 - 0.0 - - - - - - -
02/07:00am 11.7 WNW 13 19 1015.2 - 0.0 - - - - - - -
02/06:30am 11.6 WNW 16 23 1014.8 - 0.0 - - - - - - -
02/06:00am 10.3 NW 10 14 1015.0 - 0.0 - - - - - - -
02/05:30am 9.8 NW 8 12 1015.4 - 0.0 - - - - - - -
02/05:00am 10.4 WNW 10 16 1015.8 - 0.0 - - - - - - -
02/04:30am 9.7 NW 5 9 1016.2 - 0.0 - - - - - - -
02/04:00am 10.1 NW 5 9 1016.5 - 0.0 - - - - - - -
02/03:30am 9.1 NNW 5 10 1016.7 - 0.0 - - - - - - -
02/03:00am 9.9 NNW 8 13 1017.2 - 0.0 - - - - - - -
02/02:30am 9.8 NW 8 12 1017.8 - 0.0 - - - - - - -
02/02:00am 9.5 NW 7 11 1018.2 - 0.0 - - - - - - -
02/01:30am 9.6 NW 5 9 1018.6 - 0.0 - - - - - - -
02/01:00am 9.7 WNW 8 11 1019.1 - 0.0 - - - - - - -
02/12:30am 10.2 WNW 12 16 1019.5 - 0.0 - - - - - - -
02/12:00am 9.7 WNW 5 9 1019.7 - 0.0 - - - - - - -
 
Date/Time
EST
Temp

°C
Wind Pressure Rain
since 9am
mm
Weather Cloud Vis
km
Sea
Height
m
Swell
Dir
 
Speed
knots
Gust
knots
hPa Trend Height
m
Period
s
Dir
01/11:30pm 10.4 WNW 9 11 1020.0 - 0.0 - - - - - - -
01/11:00pm 10.2 WNW 9 13 1020.2 - 0.0 - - - - - - -
01/10:30pm 10.1 WNW 11 14 1020.7 - 0.0 - - - - - - -
01/10:00pm 10.3 W 13 15 1021.1 - 0.0 - - - - - - -
01/09:30pm 10.6 W 11 14 1021.3 - 0.0 - - - - - - -
01/09:00pm 10.9 W 10 14 1021.4 - 0.0 - - - - - - -
01/08:30pm 10.8 W 9 11 1021.6 - 0.0 - - - - - - -
01/08:00pm 11.1 WSW 9 12 1021.8 - 0.0 - - - - - - -
01/07:30pm 11.7 WSW 10 12 1021.8 - 0.0 - - - - - - -
01/07:00pm 11.8 WSW 9 11 1021.7 - 0.0 - - - - - - -
01/06:30pm 12.0 WSW 8 9 1021.5 - 0.0 - - - - - - -
01/06:00pm 12.4 SW 9 12 1021.5 - 0.0 - - - - - - -
01/05:30pm 12.7 SSW 12 14 1021.5 - 0.0 - - - - - - -
01/05:00pm 13.1 SW 9 11 1021.4 - 0.0 - - - - - - -
01/04:30pm 13.5 SW 9 10 1021.5 - 0.0 - - - - - - -
01/04:00pm 14.0 SW 10 13 1021.6 - 0.0 - - - - - - -
01/03:30pm 14.1 SW 7 10 1021.7 - 0.0 - - - - - - -
01/03:00pm 14.8 SW 4 7 1021.7 - 0.0 - - - - - - -
01/02:30pm 14.6 WSW 7 9 1022.0 - 0.0 - - - - - - -
01/02:00pm 14.6 WSW 10 13 1022.1 - 0.0 - - - - - - -
01/01:30pm 14.4 W 13 15 1022.6 - 0.0 - - - - - - -
01/01:00pm 14.2 WSW 14 19 1023.1 - 0.0 - - - - - - -
01/12:30pm 14.2 WSW 16 21 1023.6 - 0.0 - - - - - - -
01/12:00pm 13.9 W 14 17 1024.1 - 0.0 - - - - - - -
01/11:30am 13.4 W 14 17 1024.5 - 0.0 - - - - - - -
01/11:00am 13.0 WSW 16 21 1024.9 - 0.0 - - - - - - -
01/10:30am 12.7 W 17 20 1025.3 - 0.0 - - - - - - -
01/10:00am 12.4 W 18 23 1025.5 - 0.0 - - - - - - -
01/09:30am 11.8 W 18 24 1025.7 - 0.0 - - - - - - -
01/09:00am 10.8 W 16 19 1025.7 - 0.0 - - - - - - -
01/08:30am 10.7 W 16 20 1025.8 - 0.0 - - - - - - -
01/08:00am 10.4 WSW 16 20 1025.5 - 0.0 - - - - - - -
01/07:30am 10.4 W 15 19 1025.3 - 0.0 - - - - - - -
01/07:00am 10.1 W 15 18 1025.2 - 0.0 - - - - - - -
01/06:30am 9.9 W 14 17 1025.1 - 0.0 - - - - - - -

Other Formats:

Comma delimited format used in spreadsheet applications
http://www.bom.gov.au/fwo/IDN60701/IDN60701.94934.axf

JavaScript Object Notation format (JSON) in row-major order
http://www.bom.gov.au/fwo/IDN60701/IDN60701.94934.json